createdAt,value
2019-04-28T00:00:16.423Z,19.13
2019-04-28T00:03:04.915Z,17.20
2019-04-28T00:05:53.419Z,13.20
2019-04-28T00:08:42.882Z,17.30
2019-04-28T00:11:31.801Z,14.93
2019-04-28T00:14:21.750Z,15.17
2019-04-28T00:17:11.146Z,17.43
2019-04-28T00:20:01.652Z,12.60
2019-04-28T00:22:58.947Z,15.60
2019-04-28T00:25:58.908Z,9.30
2019-04-28T00:28:58.624Z,15.90
2019-04-28T00:31:46.976Z,15.63
2019-04-28T00:34:35.518Z,14.73
2019-04-28T00:37:28.385Z,17.47
2019-04-28T00:40:16.951Z,13.60
2019-04-28T00:43:05.050Z,20.03
2019-04-28T00:45:53.232Z,17.90
2019-04-28T00:48:42.305Z,16.60
2019-04-28T00:51:31.326Z,15.27
2019-04-28T00:54:19.026Z,19.57
2019-04-28T00:57:07.300Z,11.00
2019-04-28T00:59:58.626Z,20.93
2019-04-28T01:02:46.277Z,14.20
2019-04-28T01:05:34.792Z,14.07
2019-04-28T01:08:23.107Z,11.50
2019-04-28T01:11:11.816Z,15.33
2019-04-28T01:14:01.741Z,19.53
2019-04-28T01:16:56.829Z,14.47
2019-04-28T01:19:47.118Z,16.20
2019-04-28T01:22:36.244Z,16.20
2019-04-28T01:25:24.628Z,18.30
2019-04-28T01:28:12.881Z,15.63
2019-04-28T01:31:09.577Z,17.10
2019-04-28T01:34:16.654Z,14.40
2019-04-28T01:37:05.287Z,13.77
2019-04-28T01:39:54.870Z,19.60
2019-04-28T01:42:42.995Z,12.87
2019-04-28T01:45:31.668Z,15.07
2019-04-28T01:48:20.343Z,16.13
2019-04-28T01:51:09.506Z,13.20
2019-04-28T01:54:00.081Z,14.80
2019-04-28T01:56:50.233Z,16.60
2019-04-28T01:59:39.745Z,13.93
2019-04-28T02:02:29.812Z,16.37
2019-04-28T02:05:17.495Z,14.20
2019-04-28T02:08:05.618Z,15.20
2019-04-28T02:10:53.870Z,15.97
2019-04-28T02:13:41.476Z,17.37
2019-04-28T02:16:29.707Z,16.17
2019-04-28T02:19:18.019Z,12.37
2019-04-28T02:22:24.184Z,14.33
2019-04-28T02:25:12.800Z,16.60
2019-04-28T02:28:00.943Z,14.30
2019-04-28T02:30:53.542Z,20.90
2019-04-28T02:33:40.776Z,16.83
2019-04-28T02:36:31.236Z,18.23
2019-04-28T02:39:20.686Z,11.70
2019-04-28T02:42:10.652Z,14.17
2019-04-28T02:45:00.282Z,16.40
2019-04-28T02:47:47.981Z,14.40
2019-04-28T02:51:07.104Z,16.70
2019-04-28T02:53:55.705Z,19.07
2019-04-28T02:56:44.691Z,19.50
2019-04-28T02:59:33.023Z,14.70
2019-04-28T03:02:21.014Z,13.77
2019-04-28T03:05:11.645Z,16.00
2019-04-28T03:08:00.816Z,17.23
2019-04-28T03:10:50.744Z,18.27
2019-04-28T03:13:40.920Z,17.10
2019-04-28T03:16:30.012Z,19.80
2019-04-28T03:19:17.805Z,19.20
2019-04-28T03:22:06.127Z,15.43
2019-04-28T03:24:56.341Z,17.33
2019-04-28T03:27:52.653Z,13.33
2019-04-28T03:31:03.034Z,17.90
2019-04-28T03:33:54.723Z,23.17
2019-04-28T03:36:40.811Z,17.70
2019-04-28T03:39:30.299Z,20.43
2019-04-28T03:42:21.285Z,14.97
2019-04-28T03:45:14.338Z,21.80
2019-04-28T03:48:02.407Z,13.67
2019-04-28T03:50:51.360Z,16.10
2019-04-28T03:53:40.991Z,11.90
2019-04-28T03:56:30.957Z,19.70
2019-04-28T03:59:21.225Z,17.00
2019-04-28T04:02:11.259Z,27.80
2019-04-28T04:05:03.302Z,14.63
2019-04-28T04:07:50.457Z,25.47
2019-04-28T04:10:55.552Z,20.07
2019-04-28T04:13:55.619Z,21.67
2019-04-28T04:16:54.691Z,21.93
2019-04-28T04:19:42.590Z,13.10
2019-04-28T04:22:31.415Z,17.67
2019-04-28T04:25:20.375Z,21.90
2019-04-28T04:28:10.532Z,30.50
2019-04-28T04:31:00.520Z,18.50
2019-04-28T04:33:50.567Z,14.10
2019-04-28T04:36:41.414Z,23.63
2019-04-28T04:39:30.147Z,15.03
2019-04-28T04:42:20.269Z,20.57
2019-04-28T04:45:10.390Z,15.63
2019-04-28T04:47:57.279Z,13.53
2019-04-28T04:50:45.474Z,19.30
2019-04-28T04:53:32.904Z,17.10
2019-04-28T04:56:21.603Z,14.33
2019-04-28T04:59:10.481Z,17.20
2019-04-28T05:02:11.324Z,18.00
2019-04-28T05:05:11.868Z,16.13
2019-04-28T05:08:00.407Z,16.87
2019-04-28T05:10:50.430Z,17.50
2019-04-28T05:13:39.936Z,16.60
2019-04-28T05:16:29.669Z,16.67
2019-04-28T05:19:17.562Z,11.90
2019-04-28T05:22:05.904Z,13.20
2019-04-28T05:25:11.945Z,17.80
2019-04-28T05:28:02.875Z,16.60
2019-04-28T05:30:50.297Z,19.50
2019-04-28T05:33:39.619Z,15.13
2019-04-28T05:36:31.684Z,11.47
2019-04-28T05:39:19.470Z,14.20
2019-04-28T05:42:07.351Z,19.47
2019-04-28T05:44:55.848Z,19.97
2019-04-28T05:47:43.638Z,20.33
2019-04-28T05:50:43.307Z,13.27
2019-04-28T05:53:37.614Z,11.33
2019-04-28T05:56:39.849Z,16.43
2019-04-28T05:59:44.339Z,14.20
2019-04-28T06:02:35.618Z,13.03
2019-04-28T06:05:24.151Z,19.40
2019-04-28T06:08:21.667Z,13.07
2019-04-28T06:11:27.879Z,15.00
2019-04-28T06:14:16.107Z,13.90
2019-04-28T06:17:04.740Z,16.60
2019-04-28T06:19:52.313Z,22.30
2019-04-28T06:22:40.562Z,19.07
2019-04-28T06:25:28.479Z,26.37
2019-04-28T06:28:16.064Z,11.50
2019-04-28T06:31:04.318Z,18.23
2019-04-28T06:33:52.260Z,16.57
2019-04-28T06:36:39.815Z,15.77
2019-04-28T06:39:27.906Z,15.27
2019-04-28T06:42:16.470Z,12.93
2019-04-28T06:45:05.263Z,13.23
2019-04-28T06:47:53.379Z,15.97
2019-04-28T06:50:41.635Z,17.23
2019-04-28T06:53:29.327Z,12.67
2019-04-28T06:56:17.880Z,13.03
2019-04-28T06:59:06.202Z,16.30
2019-04-28T07:01:54.666Z,21.17
2019-04-28T07:04:43.591Z,13.50
2019-04-28T07:07:31.308Z,11.30
2019-04-28T07:10:19.747Z,12.47
2019-04-28T07:13:08.231Z,13.73
2019-04-28T07:15:56.662Z,16.10
2019-04-28T07:18:45.259Z,16.80
2019-04-28T07:21:52.580Z,18.80
2019-04-28T07:24:40.631Z,17.63
2019-04-28T07:27:29.051Z,13.63
2019-04-28T07:30:17.920Z,15.20
2019-04-28T07:33:06.040Z,15.53
2019-04-28T07:35:53.532Z,16.30
2019-04-28T07:38:41.141Z,17.50
2019-04-28T07:41:29.239Z,14.43
2019-04-28T07:44:16.927Z,13.37
2019-04-28T07:47:05.278Z,9.57
2019-04-28T07:49:53.090Z,13.57
2019-04-28T07:52:52.408Z,15.07
2019-04-28T07:55:40.243Z,11.30
2019-04-28T07:58:28.463Z,11.70
2019-04-28T08:01:16.907Z,20.07
2019-04-28T08:04:05.486Z,12.00
2019-04-28T08:06:53.852Z,12.30
2019-04-28T08:09:41.597Z,21.43
2019-04-28T08:15:05.376Z,12.27
2019-04-28T08:18:25.036Z,14.00
2019-04-28T08:24:34.768Z,17.80
2019-04-28T08:27:55.044Z,13.80
2019-04-28T08:30:56.051Z,13.57
2019-04-28T08:34:02.943Z,17.07
2019-04-28T08:37:05.420Z,10.10
2019-04-28T08:43:44.031Z,8.93
2019-04-28T08:46:45.148Z,15.50
2019-04-28T08:49:45.532Z,13.10
2019-04-28T08:59:21.639Z,9.83
2019-04-28T09:05:31.356Z,10.83
2019-04-28T09:08:31.063Z,12.17
2019-04-28T09:11:31.636Z,12.20
2019-04-28T09:14:50.592Z,14.03
2019-04-28T09:17:50.483Z,7.93
2019-04-28T09:20:50.802Z,9.60
2019-04-28T09:23:51.987Z,8.20
2019-04-28T09:27:11.589Z,9.60
2019-04-28T09:30:13.308Z,9.40
2019-04-28T09:33:13.223Z,15.77
2019-04-28T09:49:42.238Z,8.93
2019-04-28T09:56:09.571Z,10.40
2019-04-28T10:05:45.033Z,6.87
2019-04-28T10:08:49.986Z,11.80
2019-04-28T10:11:51.091Z,6.23
2019-04-28T10:14:52.923Z,6.63
2019-04-28T10:17:52.903Z,8.40
2019-04-28T10:21:12.232Z,9.30
2019-04-28T10:27:39.483Z,7.03
2019-04-28T10:30:40.658Z,5.93
2019-04-28T10:37:06.003Z,9.03
2019-04-28T10:54:03.537Z,10.20
2019-04-28T10:57:04.191Z,8.33
2019-04-28T11:03:29.661Z,6.37
2019-04-28T11:10:26.708Z,6.97
2019-04-28T11:13:45.351Z,8.70
2019-04-28T11:16:46.551Z,8.73
2019-04-28T11:19:34.562Z,8.43
2019-04-28T11:22:41.360Z,10.03
2019-04-28T11:29:52.943Z,10.93
2019-04-28T11:36:23.547Z,9.33
2019-04-28T11:39:49.138Z,7.10
2019-04-28T11:43:14.695Z,6.30
2019-04-28T11:49:30.223Z,5.20
2019-04-28T11:55:27.531Z,10.50
2019-04-28T11:58:53.672Z,8.33
2019-04-28T12:02:19.200Z,8.30
2019-04-28T12:05:34.019Z,11.07
2019-04-28T12:08:25.373Z,9.73
2019-04-28T12:11:44.307Z,8.67
2019-04-28T12:18:35.971Z,7.77
2019-04-28T12:21:37.056Z,6.43
2019-04-28T12:24:57.496Z,8.00
2019-04-28T12:27:57.559Z,6.43
2019-04-28T12:30:57.551Z,5.03
2019-04-28T12:33:57.936Z,7.37
2019-04-28T12:37:17.223Z,9.00
2019-04-28T12:40:36.396Z,7.00
2019-04-28T12:43:37.273Z,4.30
2019-04-28T12:56:34.364Z,3.50
2019-04-28T13:03:01.168Z,5.60
2019-04-28T13:06:05.912Z,3.67
2019-04-28T13:09:07.705Z,3.53
2019-04-28T13:19:11.612Z,5.40
2019-04-28T13:25:49.243Z,6.90
2019-04-28T13:28:50.318Z,5.97
2019-04-28T13:31:51.873Z,5.40
2019-04-28T13:34:53.416Z,5.97
2019-04-28T13:37:54.704Z,4.60
2019-04-28T13:40:55.243Z,5.80
2019-04-28T13:43:55.779Z,7.40
2019-04-28T13:46:55.845Z,4.73
2019-04-28T13:50:00.241Z,7.43
2019-04-28T13:53:00.195Z,8.70
2019-04-28T13:59:25.452Z,6.67
2019-04-28T14:09:19.607Z,4.17
2019-04-28T14:15:59.950Z,7.10
2019-04-28T14:19:01.179Z,5.60
2019-04-28T14:22:21.279Z,5.40
2019-04-28T14:25:20.918Z,3.97
2019-04-28T14:28:40.145Z,4.20
2019-04-28T14:38:29.412Z,3.80
2019-04-28T14:41:30.575Z,4.60
2019-04-28T14:44:31.848Z,3.83
2019-04-28T14:47:52.307Z,4.13
2019-04-28T14:54:34.802Z,5.43
2019-04-28T14:57:36.356Z,4.67
2019-04-28T15:00:55.957Z,4.13
2019-04-28T15:04:15.156Z,5.27
2019-04-28T15:07:16.735Z,3.17
2019-04-28T15:13:41.597Z,7.07
2019-04-28T15:23:32.389Z,5.77
2019-04-28T15:26:52.623Z,5.70
2019-04-28T15:29:52.210Z,3.50
2019-04-28T15:32:52.561Z,4.20
2019-04-28T15:39:39.047Z,5.13
2019-04-28T15:45:53.367Z,4.10
2019-04-28T15:53:11.388Z,6.43
2019-04-28T16:03:19.419Z,5.67
2019-04-28T16:06:39.896Z,6.40
2019-04-28T16:13:20.896Z,3.57
2019-04-28T16:16:20.867Z,6.80
2019-04-28T16:22:59.793Z,8.63
2019-04-28T16:26:00.904Z,7.13
2019-04-28T16:29:20.600Z,6.67
2019-04-28T16:49:44.621Z,8.33
2019-04-28T17:06:42.475Z,9.13
2019-04-28T17:13:20.736Z,6.60
2019-04-28T17:29:27.664Z,5.63
2019-04-28T17:42:25.368Z,7.30
2019-04-28T17:45:25.328Z,7.87
2019-04-28T17:48:45.892Z,8.00
2019-04-28T17:54:54.524Z,7.23
2019-04-28T17:57:55.703Z,5.93
2019-04-28T18:01:16.195Z,5.97
2019-04-28T18:14:33.672Z,6.83
2019-04-28T18:17:52.189Z,8.90
2019-04-28T18:20:52.452Z,6.77
2019-04-28T18:23:41.167Z,6.93
2019-04-28T18:27:07.119Z,6.10
2019-04-28T18:47:19.212Z,10.87
2019-04-28T18:55:06.406Z,8.07
2019-04-28T19:25:55.378Z,16.40
2019-04-28T19:29:02.767Z,14.70
2019-04-28T19:35:38.168Z,14.50
2019-04-28T19:38:46.684Z,13.77
2019-04-28T19:41:55.194Z,13.03
2019-04-28T19:44:44.491Z,13.93
2019-04-28T19:47:52.819Z,13.70
2019-04-28T19:51:01.330Z,14.70
2019-04-28T19:57:44.539Z,14.37
2019-04-28T20:07:41.015Z,13.33
2019-04-28T20:10:41.759Z,12.70
2019-04-28T20:13:43.389Z,14.50
2019-04-28T20:16:51.519Z,13.93
2019-04-28T20:26:32.089Z,13.90
2019-04-28T20:29:40.892Z,15.03
2019-04-28T20:32:49.390Z,18.27
2019-04-28T20:42:39.616Z,18.07
2019-04-28T20:45:48.132Z,16.37
2019-04-28T20:48:56.635Z,15.97
2019-04-28T20:52:23.207Z,16.73
2019-04-28T20:55:31.972Z,15.07
2019-04-28T20:58:40.484Z,16.07
2019-04-28T21:05:09.842Z,15.53
2019-04-28T21:08:11.519Z,16.13
2019-04-28T21:11:13.007Z,16.17
2019-04-28T21:14:14.480Z,17.20
2019-04-28T21:20:55.783Z,15.60
2019-04-28T21:23:56.817Z,14.47
2019-04-28T21:26:57.223Z,16.20
2019-04-28T21:29:58.991Z,17.00
2019-04-28T21:32:59.398Z,16.53
2019-04-28T21:39:26.586Z,17.60
2019-04-28T21:42:29.507Z,16.67
2019-04-28T21:45:50.300Z,17.10
2019-04-28T21:52:15.236Z,18.37
2019-04-28T21:55:16.367Z,23.83
2019-04-28T22:02:19.808Z,21.73
2019-04-28T22:08:46.679Z,18.33
2019-04-28T22:11:47.019Z,20.40
2019-04-28T22:14:47.998Z,20.80
2019-04-28T22:17:49.804Z,19.73
2019-04-28T22:20:50.939Z,19.37
2019-04-28T22:27:29.432Z,18.83
2019-04-28T22:30:30.421Z,21.63
2019-04-28T22:33:31.809Z,18.87
2019-04-28T22:36:33.228Z,18.93
2019-04-28T22:39:34.705Z,20.60
2019-04-28T22:42:34.972Z,19.53
2019-04-28T22:45:35.395Z,18.37
2019-04-28T22:48:36.720Z,21.00
2019-04-28T22:55:05.763Z,20.33
2019-04-28T22:58:29.164Z,20.57
2019-04-28T23:01:32.991Z,24.20
2019-04-28T23:04:40.527Z,22.20
2019-04-28T23:07:41.911Z,21.67
2019-04-28T23:10:43.012Z,18.73
2019-04-28T23:19:58.215Z,18.23
2019-04-28T23:26:39.819Z,21.30
2019-04-28T23:29:48.331Z,19.53
2019-04-28T23:32:56.828Z,20.27
2019-04-28T23:36:05.342Z,17.70
2019-04-28T23:39:14.113Z,19.07
2019-04-28T23:42:22.625Z,17.57
2019-04-28T23:45:31.135Z,21.30
2019-04-28T23:48:39.640Z,19.30
2019-04-28T23:51:47.615Z,20.40
2019-04-28T23:54:36.788Z,19.83
2019-04-28T23:57:45.536Z,18.93
